createdAt,value
2022-09-02T00:02:14.344Z,99.90
2022-09-02T00:05:36.471Z,99.90
2022-09-02T00:08:58.360Z,99.90
2022-09-02T00:12:21.281Z,99.90
2022-09-02T00:15:43.115Z,99.90
2022-09-02T00:19:05.053Z,99.90
2022-09-02T00:22:26.671Z,99.90
2022-09-02T00:25:48.404Z,99.90
2022-09-02T00:29:11.403Z,99.90
2022-09-02T00:32:33.171Z,99.90
2022-09-02T00:35:54.776Z,99.90
2022-09-02T00:39:16.355Z,99.90
2022-09-02T00:42:37.936Z,99.90
2022-09-02T00:46:00.926Z,99.90
2022-09-02T00:49:23.887Z,99.90
2022-09-02T00:52:47.544Z,99.90
2022-09-02T00:56:11.376Z,99.90
2022-09-02T00:59:38.017Z,99.90
2022-09-02T01:03:02.368Z,99.90
2022-09-02T01:06:25.212Z,99.90
2022-09-02T01:09:46.868Z,99.90
2022-09-02T01:13:10.916Z,99.90
2022-09-02T01:16:35.787Z,99.90
2022-09-02T01:20:00.976Z,99.90
2022-09-02T01:23:23.951Z,99.90
2022-09-02T01:26:47.221Z,99.90
2022-09-02T01:30:10.310Z,99.90
2022-09-02T01:33:31.901Z,99.90
2022-09-02T01:36:53.510Z,99.90
2022-09-02T01:40:17.410Z,99.90
2022-09-02T01:43:39.040Z,99.90
2022-09-02T01:47:00.682Z,99.90
2022-09-02T01:50:22.366Z,99.90
2022-09-02T01:53:44.347Z,99.90
2022-09-02T01:57:07.341Z,99.90
2022-09-02T02:00:29.209Z,99.90
2022-09-02T02:03:50.838Z,99.90
2022-09-02T02:07:13.054Z,99.90
2022-09-02T02:10:34.892Z,99.90
2022-09-02T02:13:57.834Z,99.90
2022-09-02T02:17:19.434Z,99.90
2022-09-02T02:20:42.871Z,99.90
2022-09-02T02:24:06.751Z,99.90
2022-09-02T02:27:28.388Z,99.90
2022-09-02T02:30:51.360Z,99.90
2022-09-02T02:34:13.235Z,99.90
2022-09-02T02:37:34.795Z,99.90
2022-09-02T02:40:56.818Z,99.90
2022-09-02T02:44:18.473Z,99.90
2022-09-02T02:47:42.429Z,99.90
2022-09-02T02:51:04.356Z,99.90
2022-09-02T02:54:35.201Z,99.90
2022-09-02T02:57:56.956Z,99.90
2022-09-02T03:01:18.617Z,99.90
2022-09-02T03:04:41.585Z,99.90
2022-09-02T03:08:03.363Z,99.90
2022-09-02T03:11:25.048Z,99.90
2022-09-02T03:14:46.646Z,99.90
2022-09-02T03:18:08.659Z,99.90
2022-09-02T03:21:38.666Z,99.90
2022-09-02T03:25:01.063Z,99.90
2022-09-02T03:28:22.661Z,99.90
2022-09-02T03:31:44.619Z,99.90
2022-09-02T03:35:07.582Z,99.90
2022-09-02T03:38:30.527Z,99.90
2022-09-02T03:41:52.117Z,99.90
2022-09-02T03:45:13.791Z,99.90
2022-09-02T03:48:35.416Z,99.90
2022-09-02T03:51:56.996Z,99.90
2022-09-02T03:55:20.022Z,99.90
2022-09-02T03:58:41.973Z,99.90
2022-09-02T04:02:04.265Z,99.90
2022-09-02T04:05:26.111Z,99.90
2022-09-02T04:08:48.152Z,99.90
2022-09-02T04:12:11.096Z,99.90
2022-09-02T04:15:32.691Z,99.90
2022-09-02T04:18:54.550Z,99.90
2022-09-02T04:22:16.136Z,99.90
2022-09-02T04:25:39.185Z,99.90
2022-09-02T04:29:02.123Z,99.90
2022-09-02T04:32:24.430Z,99.90
2022-09-02T04:35:47.213Z,99.90
2022-09-02T04:39:08.824Z,99.90
2022-09-02T04:42:30.632Z,99.90
2022-09-02T04:45:53.592Z,99.90
2022-09-02T04:49:15.220Z,99.90
2022-09-02T04:52:36.831Z,99.90
2022-09-02T04:55:58.449Z,99.90
2022-09-02T04:59:20.020Z,99.90
2022-09-02T05:02:42.983Z,99.90
2022-09-02T05:06:06.097Z,99.90
2022-09-02T05:09:28.079Z,99.90
2022-09-02T05:12:49.681Z,99.90
2022-09-02T05:16:14.740Z,99.90
2022-09-02T05:19:37.727Z,99.90
2022-09-02T05:22:59.309Z,99.90
2022-09-02T05:26:20.910Z,99.90
2022-09-02T05:29:45.338Z,99.90
2022-09-02T05:33:07.625Z,99.90
2022-09-02T05:36:32.147Z,99.90
2022-09-02T05:39:53.836Z,99.90
2022-09-02T05:43:15.416Z,99.90
2022-09-02T05:46:37.013Z,99.90
2022-09-02T05:49:58.587Z,99.90
2022-09-02T05:53:21.602Z,99.90
2022-09-02T05:56:44.937Z,99.90
2022-09-02T06:00:07.544Z,99.90
2022-09-02T06:03:29.123Z,99.90
2022-09-02T06:06:50.768Z,99.90
2022-09-02T06:10:13.746Z,99.90
2022-09-02T06:13:36.050Z,99.90
2022-09-02T06:16:58.619Z,99.90
2022-09-02T06:20:20.178Z,99.10
2022-09-02T06:23:41.831Z,95.00
2022-09-02T06:27:04.959Z,94.60
2022-09-02T06:30:26.571Z,92.90
2022-09-02T06:33:50.944Z,91.50
2022-09-02T06:37:12.523Z,91.10
2022-09-02T06:40:34.176Z,90.10
2022-09-02T06:43:58.223Z,91.30
2022-09-02T06:47:21.620Z,90.60
2022-09-02T06:50:44.107Z,90.10
2022-09-02T06:54:06.856Z,89.20
2022-09-02T06:57:33.848Z,89.50
2022-09-02T07:00:57.255Z,90.30
2022-09-02T07:04:18.955Z,86.80
2022-09-02T07:07:41.902Z,86.10
2022-09-02T07:11:03.501Z,86.80
2022-09-02T07:14:25.603Z,88.30
2022-09-02T07:17:48.589Z,87.80
2022-09-02T07:21:10.354Z,86.90
2022-09-02T07:24:31.951Z,87.40
2022-09-02T07:27:53.551Z,86.20
2022-09-02T07:31:16.023Z,89.90
2022-09-02T07:34:39.017Z,85.00
2022-09-02T07:38:00.620Z,87.40
2022-09-02T07:41:23.158Z,83.70
2022-09-02T07:44:44.762Z,87.20
2022-09-02T07:48:06.484Z,85.90
2022-09-02T07:51:31.112Z,83.90
2022-09-02T07:54:52.871Z,82.50
2022-09-02T07:58:16.011Z,82.20
2022-09-02T08:01:38.524Z,83.20
2022-09-02T08:05:00.351Z,84.50
2022-09-02T08:08:23.302Z,84.80
2022-09-02T08:11:45.889Z,82.60
2022-09-02T08:15:08.696Z,83.50
2022-09-02T08:18:30.489Z,84.50
2022-09-02T08:21:52.095Z,82.40
2022-09-02T08:25:15.321Z,82.70
2022-09-02T08:28:36.916Z,82.60
2022-09-02T08:31:58.619Z,82.20
2022-09-02T08:35:20.320Z,80.30
2022-09-02T08:38:42.365Z,80.50
2022-09-02T08:42:08.903Z,81.60
2022-09-02T08:45:32.254Z,79.10
2022-09-02T08:48:56.759Z,79.70
2022-09-02T08:52:22.596Z,80.20
2022-09-02T08:55:45.646Z,79.00
2022-09-02T08:59:09.520Z,80.10
2022-09-02T09:02:35.863Z,77.00
2022-09-02T09:06:01.968Z,80.30
2022-09-02T09:09:27.911Z,80.70
2022-09-02T09:12:56.477Z,76.20
2022-09-02T09:16:25.642Z,80.00
2022-09-02T09:19:48.620Z,79.50
2022-09-02T09:23:21.895Z,76.70
2022-09-02T09:26:43.977Z,77.80
2022-09-02T09:30:06.203Z,75.20
2022-09-02T09:33:30.335Z,76.10
2022-09-02T09:36:52.755Z,75.60
2022-09-02T09:40:21.487Z,71.30
2022-09-02T09:43:43.224Z,71.70
2022-09-02T09:47:06.168Z,72.50
2022-09-02T09:50:29.095Z,72.80
2022-09-02T09:53:50.990Z,74.30
2022-09-02T09:57:14.768Z,75.10
2022-09-02T10:00:38.175Z,75.30
2022-09-02T10:04:02.027Z,73.10
2022-09-02T10:07:39.117Z,74.80
2022-09-02T10:11:02.340Z,74.90
2022-09-02T10:14:26.568Z,72.10
2022-09-02T10:17:56.871Z,71.50
2022-09-02T10:21:28.089Z,73.30
2022-09-02T10:25:00.149Z,72.30
2022-09-02T10:28:26.545Z,70.10
2022-09-02T10:31:51.845Z,72.70
2022-09-02T10:35:17.948Z,71.40
2022-09-02T10:38:42.050Z,74.40
2022-09-02T10:42:08.776Z,74.20
2022-09-02T10:45:33.603Z,71.80
2022-09-02T10:48:59.684Z,74.30
2022-09-02T10:52:32.204Z,76.70
2022-09-02T10:55:56.502Z,75.00
2022-09-02T10:59:21.941Z,75.70
2022-09-02T11:02:47.269Z,76.70
2022-09-02T11:06:10.968Z,78.00
2022-09-02T11:09:34.721Z,77.20
2022-09-02T11:13:00.651Z,78.80
2022-09-02T11:16:25.726Z,79.10
2022-09-02T11:19:50.048Z,78.90
2022-09-02T11:23:15.961Z,78.00
2022-09-02T11:26:39.194Z,81.10
2022-09-02T11:30:03.349Z,81.10
2022-09-02T11:33:28.283Z,79.80
2022-09-02T11:36:49.949Z,80.10
2022-09-02T11:40:33.195Z,79.70
2022-09-02T11:47:39.162Z,79.20
2022-09-02T11:51:16.847Z,81.20
2022-09-02T11:54:39.799Z,80.80
2022-09-02T11:58:01.990Z,81.30
2022-09-02T12:01:29.043Z,83.20
2022-09-02T12:05:06.895Z,83.20
2022-09-02T12:08:47.735Z,80.80
2022-09-02T12:12:30.638Z,81.10
2022-09-02T12:16:25.302Z,82.00
2022-09-02T12:19:48.581Z,80.80
2022-09-02T12:23:19.380Z,83.00
2022-09-02T12:26:58.698Z,81.10
2022-09-02T12:30:35.192Z,80.70
2022-09-02T12:33:57.327Z,81.20
2022-09-02T12:37:38.629Z,81.10
2022-09-02T12:41:24.226Z,79.60
2022-09-02T12:44:52.230Z,81.00
2022-09-02T12:48:16.886Z,80.50
2022-09-02T12:51:51.271Z,81.90
2022-09-02T12:55:16.011Z,80.70
2022-09-02T12:58:38.627Z,81.50
2022-09-02T13:02:18.745Z,82.50
2022-09-02T13:05:50.474Z,81.10
2022-09-02T13:09:31.591Z,83.40
2022-09-02T13:13:08.095Z,81.20
2022-09-02T13:16:37.298Z,79.10
2022-09-02T13:20:32.305Z,80.20
2022-09-02T13:24:23.832Z,82.20
2022-09-02T13:27:53.892Z,81.10
2022-09-02T13:31:19.451Z,83.10
2022-09-02T13:34:41.597Z,84.10
2022-09-02T13:38:03.287Z,82.30
2022-09-02T13:41:30.325Z,82.00
2022-09-02T13:45:07.927Z,81.20
2022-09-02T13:48:31.131Z,82.20
2022-09-02T13:51:53.552Z,82.00
2022-09-02T13:55:16.387Z,81.60
2022-09-02T13:58:41.276Z,81.80
2022-09-02T14:02:19.785Z,81.70
2022-09-02T14:05:47.353Z,81.30
2022-09-02T14:09:11.520Z,79.90
2022-09-02T14:12:34.098Z,80.80
2022-09-02T14:16:10.597Z,80.40
2022-09-02T14:19:33.558Z,81.30
2022-09-02T14:22:56.052Z,82.70
2022-09-02T14:26:19.769Z,80.20
2022-09-02T14:29:43.407Z,79.60
2022-09-02T14:33:18.399Z,79.60
2022-09-02T14:36:41.550Z,79.30
2022-09-02T14:40:08.071Z,78.60
2022-09-02T14:43:34.563Z,79.90
2022-09-02T14:46:58.132Z,79.80
2022-09-02T14:50:22.144Z,79.50
2022-09-02T14:53:45.088Z,78.30
2022-09-02T14:57:19.019Z,79.70
2022-09-02T15:00:40.606Z,80.20
2022-09-02T15:04:02.388Z,78.80
2022-09-02T15:07:24.850Z,79.80
2022-09-02T15:10:47.950Z,80.00
2022-09-02T15:14:09.562Z,79.90
2022-09-02T15:17:31.179Z,78.70
2022-09-02T15:20:52.773Z,79.30
2022-09-02T15:24:14.580Z,80.60
2022-09-02T15:27:37.526Z,79.40
2022-09-02T15:30:59.434Z,77.60
2022-09-02T15:34:21.051Z,78.80
2022-09-02T15:37:42.652Z,79.70
2022-09-02T15:41:14.168Z,79.40
2022-09-02T15:44:37.108Z,79.60
2022-09-02T15:47:58.731Z,78.20
2022-09-02T15:51:21.213Z,78.50
2022-09-02T15:54:42.805Z,78.00
2022-09-02T15:58:04.424Z,78.70
2022-09-02T16:01:28.932Z,78.00
2022-09-02T16:04:50.604Z,80.60
2022-09-02T16:08:12.204Z,82.20
2022-09-02T16:11:33.792Z,81.10
2022-09-02T16:14:55.380Z,81.40
2022-09-02T16:18:18.325Z,80.70
2022-09-02T16:21:39.938Z,82.10
2022-09-02T16:25:01.541Z,82.90
2022-09-02T16:28:23.150Z,81.30
2022-09-02T16:31:47.769Z,83.30
2022-09-02T16:35:20.230Z,82.70
2022-09-02T16:38:41.839Z,83.70
2022-09-02T16:42:03.988Z,84.60
2022-09-02T16:45:25.576Z,84.80
2022-09-02T16:48:47.171Z,85.00
2022-09-02T16:52:10.457Z,85.20
2022-09-02T16:55:32.123Z,85.20
2022-09-02T16:59:01.030Z,85.40
2022-09-02T17:02:24.382Z,84.80
2022-09-02T17:05:46.009Z,84.90
2022-09-02T17:09:09.130Z,85.00
2022-09-02T17:12:30.702Z,85.20
2022-09-02T17:15:52.325Z,86.90
2022-09-02T17:19:14.392Z,87.30
2022-09-02T17:22:35.976Z,87.50
2022-09-02T17:25:58.927Z,87.30
2022-09-02T17:29:47.518Z,87.90
2022-09-02T17:33:03.103Z,88.30
2022-09-02T17:36:25.218Z,89.60
2022-09-02T17:39:47.318Z,90.00
2022-09-02T17:43:10.263Z,90.10
2022-09-02T17:46:31.858Z,90.20
2022-09-02T17:49:53.443Z,90.50
2022-09-02T17:53:15.039Z,90.70
2022-09-02T17:56:46.203Z,91.00
2022-09-02T18:00:10.283Z,91.30
2022-09-02T18:03:36.463Z,91.70
2022-09-02T18:07:00.660Z,91.80
2022-09-02T18:10:22.244Z,92.20
2022-09-02T18:13:48.459Z,92.10
2022-09-02T18:17:21.622Z,92.30
2022-09-02T18:20:44.026Z,92.60
2022-09-02T18:24:10.883Z,92.80
2022-09-02T18:27:39.718Z,93.00
2022-09-02T18:31:07.480Z,93.20
2022-09-02T18:34:36.870Z,93.10
2022-09-02T18:38:02.990Z,93.30
2022-09-02T18:41:35.563Z,93.50
2022-09-02T18:45:02.144Z,93.50
2022-09-02T18:48:26.514Z,93.70
2022-09-02T18:51:52.290Z,93.60
2022-09-02T18:55:15.538Z,93.60
2022-09-02T18:58:39.136Z,93.80
2022-09-02T19:02:05.158Z,93.90
2022-09-02T19:05:27.847Z,93.90
2022-09-02T19:08:55.606Z,93.80
2022-09-02T19:12:17.408Z,94.00
2022-09-02T19:15:39.125Z,94.00
2022-09-02T19:19:00.708Z,94.20
2022-09-02T19:22:23.647Z,94.30
2022-09-02T19:25:47.282Z,94.40
2022-09-02T19:29:10.305Z,94.80
2022-09-02T19:32:33.275Z,94.70
2022-09-02T19:35:55.089Z,95.10
2022-09-02T19:39:16.754Z,95.10
2022-09-02T19:42:41.355Z,95.10
2022-09-02T19:46:03.043Z,95.00
2022-09-02T19:49:24.766Z,95.20
2022-09-02T19:52:48.397Z,95.20
2022-09-02T19:56:10.118Z,95.40
2022-09-02T19:59:37.288Z,95.40
2022-09-02T20:02:58.900Z,95.40
2022-09-02T20:06:20.503Z,95.50
2022-09-02T20:09:42.099Z,95.60
2022-09-02T20:13:04.227Z,96.00
2022-09-02T20:16:27.471Z,96.30
2022-09-02T20:19:49.830Z,96.80
2022-09-02T20:23:17.306Z,96.90
2022-09-02T20:26:44.924Z,96.90
2022-09-02T20:30:08.635Z,97.00
2022-09-02T20:33:35.247Z,97.00
2022-09-02T20:37:01.289Z,97.20
2022-09-02T20:40:32.176Z,96.90
2022-09-02T20:44:12.038Z,97.40
2022-09-02T20:47:50.293Z,97.80
2022-09-02T20:51:16.106Z,98.20
2022-09-02T20:54:39.792Z,97.90
2022-09-02T20:58:03.839Z,98.10
2022-09-02T21:01:27.034Z,97.60
2022-09-02T21:04:50.921Z,97.40
2022-09-02T21:08:17.284Z,97.50
2022-09-02T21:11:42.544Z,99.20
2022-09-02T21:15:07.158Z,98.40
2022-09-02T21:18:31.465Z,99.10
2022-09-02T21:21:54.924Z,99.60
2022-09-02T21:25:21.946Z,99.90
2022-09-02T21:28:45.387Z,99.30
2022-09-02T21:32:10.344Z,99.10
2022-09-02T21:35:40.114Z,99.00
2022-09-02T21:39:03.997Z,99.30
2022-09-02T21:42:30.309Z,99.90
2022-09-02T21:45:56.071Z,99.90
2022-09-02T21:49:25.343Z,99.90
2022-09-02T21:52:52.674Z,99.90
2022-09-02T21:56:30.529Z,99.90
2022-09-02T21:59:58.514Z,99.90
2022-09-02T22:03:23.467Z,99.90
2022-09-02T22:06:47.459Z,99.90
2022-09-02T22:10:14.281Z,99.90
2022-09-02T22:13:35.942Z,99.90
2022-09-02T22:17:02.498Z,99.90
2022-09-02T22:20:27.000Z,99.90
2022-09-02T22:23:48.581Z,99.90
2022-09-02T22:27:12.357Z,99.90
2022-09-02T22:30:35.820Z,99.90
2022-09-02T22:34:00.140Z,99.90
2022-09-02T22:37:23.818Z,99.90
2022-09-02T22:40:47.307Z,99.90
2022-09-02T22:44:11.394Z,99.90
2022-09-02T22:47:34.391Z,99.90
2022-09-02T22:50:59.173Z,99.90
2022-09-02T22:54:20.769Z,99.90
2022-09-02T22:57:47.016Z,99.90
2022-09-02T23:01:11.259Z,99.90
2022-09-02T23:04:38.217Z,99.90
2022-09-02T23:08:01.783Z,99.90
2022-09-02T23:11:27.750Z,99.90
2022-09-02T23:14:53.029Z,99.90
2022-09-02T23:18:17.915Z,99.90
2022-09-02T23:21:42.026Z,99.90
2022-09-02T23:25:12.406Z,99.90
2022-09-02T23:28:37.172Z,99.90
2022-09-02T23:32:05.221Z,99.90
2022-09-02T23:35:31.093Z,99.90
2022-09-02T23:39:00.556Z,99.90
2022-09-02T23:42:23.838Z,99.90
2022-09-02T23:45:46.112Z,99.90
2022-09-02T23:49:10.900Z,99.90
2022-09-02T23:52:36.726Z,99.90
2022-09-02T23:56:05.071Z,99.90
2022-09-02T23:59:35.578Z,99.90
